< < Back
Terminal Aerodrome Forecast


Current Version              Previous Versions:   1  2  3  4  5  6  7  8  9  

Terminal Aerodrome Forecast

286
FTUS42 KFFC 242203 AAB
TAFPDK
TAF AMD
KPDK 242203Z 2422/2518 21004KT P6SM VCSH SCT050
      TEMPO 2422/2423 VRB15G25KT 5SM -TSRA BKN035CB
     FM250200 00000KT P6SM SCT250
     FM251500 24003KT P6SM SCT035=

Latest METAR

398
SAUS70 KWBC 250200 RRC
MTRPDK
METAR KPDK 250153Z 00000KT 10SM SCT070 26/21 A3006 RMK AO2 SLP158
T02610211


USA.gov is the U.S. government's official web portal to all federal, state and local government web resources and services.